Time;durP1;ratioP1;P1;durP2;ratioP2;P2;SDS_P1;SDS_P2;PMS_P1;PMS_P2;Temp;Humidity;BMP_temperature;BMP_pressure;BME280_temperature;BME280_humidity;BME280_pressure;Samples;Min_cycle;Max_cycle;Signal;HPM_P1;HPM_P2
2020/12/08 00:00:31;;;;;;;15.07;11.33;;;;;;;1.72;90.05;95250.25;5014245;28;20210;-70
2020/12/08 00:02:57;;;;;;;16.73;11.07;;;;;;;1.64;91.99;95251.28;5014383;28;20187;-70
2020/12/08 00:05:23;;;;;;;15.33;10.97;;;;;;;1.73;91.53;95245.88;5015068;28;20188;-74
2020/12/08 00:07:49;;;;;;;17.47;11.67;;;;;;;1.66;91.77;95248.50;5015045;28;20199;-70
2020/12/08 00:10:19;;;;;;;17.90;12.10;;;;;;;1.65;91.31;95245.13;5014799;28;20183;-71
2020/12/08 00:12:45;;;;;;;18.43;12.83;;;;;;;1.77;90.93;95241.88;5014767;28;20235;-70
2020/12/08 00:15:10;;;;;;;17.80;12.27;;;;;;;2.00;89.72;95242.09;5015047;28;20221;-73
2020/12/08 00:17:36;;;;;;;18.20;12.77;;;;;;;2.07;89.50;95245.41;5013222;28;20215;-69
2020/12/08 00:20:02;;;;;;;19.20;12.87;;;;;;;2.04;90.07;95249.22;4998400;28;20202;-70
2020/12/08 00:22:28;;;;;;;18.03;12.77;;;;;;;2.11;90.12;95250.97;4996160;28;20193;-73
2020/12/08 00:24:53;;;;;;;16.93;12.03;;;;;;;2.02;89.92;95245.25;5014830;28;20187;-70
2020/12/08 00:27:19;;;;;;;21.57;13.80;;;;;;;2.05;90.17;95235.31;5015047;28;20249;-69
2020/12/08 00:29:44;;;;;;;19.73;14.00;;;;;;;1.84;90.08;95235.66;5014427;28;20191;-69
2020/12/08 00:32:10;;;;;;;21.30;13.70;;;;;;;1.76;90.88;95228.19;5014774;28;20198;-69
2020/12/08 00:34:36;;;;;;;21.20;13.87;;;;;;;1.77;91.21;95221.22;5013406;28;20598;-69
2020/12/08 00:37:04;;;;;;;21.83;13.70;;;;;;;1.48;91.68;95225.97;5017517;28;20187;-69
2020/12/08 00:39:29;;;;;;;22.43;14.10;;;;;;;1.79;91.44;95224.38;5013592;28;20581;-69
2020/12/08 00:41:55;;;;;;;22.20;14.60;;;;;;;1.84;91.39;95221.97;5014718;28;20195;-69
2020/12/08 00:44:21;;;;;;;22.30;14.20;;;;;;;1.59;91.55;95227.09;4993963;28;20198;-73
2020/12/08 00:46:49;;;;;;;21.30;13.97;;;;;;;1.75;91.83;95228.38;4981426;28;20244;-69
2020/12/08 00:49:14;;;;;;;20.97;14.17;;;;;;;1.89;90.32;95235.84;5013652;28;20582;-68
2020/12/08 00:51:40;;;;;;;22.07;14.20;;;;;;;1.97;90.58;95242.50;5013287;28;20190;-69
2020/12/08 00:54:05;;;;;;;20.30;14.07;;;;;;;1.78;90.64;95241.69;5014664;28;20192;-69
2020/12/08 00:56:31;;;;;;;22.17;14.27;;;;;;;1.92;90.30;95242.34;5011210;28;20194;-69
2020/12/08 00:58:57;;;;;;;25.20;14.63;;;;;;;2.11;89.66;95236.25;5012855;28;20686;-69
2020/12/08 01:01:24;;;;;;;22.73;14.23;;;;;;;1.93;89.55;95238.78;5002966;28;20203;-73
2020/12/08 01:03:49;;;;;;;19.43;13.37;;;;;;;1.83;89.70;95231.50;5014355;28;20207;-69
2020/12/08 01:06:15;;;;;;;21.13;14.33;;;;;;;1.97;89.89;95232.97;5014225;28;20218;-70
2020/12/08 01:08:40;;;;;;;22.57;14.23;;;;;;;2.13;89.30;95246.34;5013420;28;20797;-69
2020/12/08 01:11:06;;;;;;;19.50;13.43;;;;;;;2.21;88.48;95228.81;5013840;28;20559;-69
2020/12/08 01:13:35;;;;;;;21.03;14.47;;;;;;;2.27;87.65;95230.53;5013281;28;20234;-70
2020/12/08 01:16:04;;;;;;;19.10;12.97;;;;;;;2.09;89.08;95233.88;5013131;28;20206;-69
2020/12/08 01:18:30;;;;;;;20.73;13.87;;;;;;;2.16;88.28;95233.03;5027170;28;20274;-69
2020/12/08 01:20:55;;;;;;;20.97;12.90;;;;;;;2.30;88.19;95234.47;5013701;28;20306;-70
2020/12/08 01:23:25;;;;;;;18.47;12.83;;;;;;;2.34;87.25;95222.72;5013801;28;20608;-71
2020/12/08 01:25:51;;;;;;;18.47;13.20;;;;;;;2.28;87.09;95231.34;5013050;28;20187;-69
2020/12/08 01:28:19;;;;;;;20.80;14.10;;;;;;;2.23;86.64;95226.78;4996249;28;20238;-69
2020/12/08 01:30:47;;;;;;;19.43;12.83;;;;;;;2.35;86.09;95217.31;5012694;28;20204;-71
2020/12/08 01:33:12;;;;;;;20.07;13.33;;;;;;;2.36;86.06;95218.91;5014084;28;20187;-69
2020/12/08 01:35:38;;;;;;;20.43;13.70;;;;;;;2.21;86.40;95212.50;5011864;28;20694;-69
2020/12/08 01:38:04;;;;;;;21.03;14.17;;;;;;;2.22;86.63;95203.75;5013672;28;20190;-69
2020/12/08 01:40:30;;;;;;;20.17;13.37;;;;;;;2.20;85.96;95209.13;5012373;28;20204;-69
2020/12/08 01:42:55;;;;;;;22.93;13.70;;;;;;;2.11;86.52;95215.59;5013781;28;20187;-69
2020/12/08 01:45:21;;;;;;;21.67;13.53;;;;;;;1.99;87.85;95212.09;5012329;28;20186;-70
2020/12/08 01:47:46;;;;;;;20.90;13.83;;;;;;;1.97;88.20;95214.09;5001550;28;20250;-69
2020/12/08 01:50:12;;;;;;;20.83;14.33;;;;;;;2.01;86.94;95210.06;5013485;28;20188;-70
2020/12/08 01:52:37;;;;;;;21.97;14.63;;;;;;;1.87;88.00;95212.00;5010857;28;20187;-69
2020/12/08 01:55:04;;;;;;;22.33;14.23;;;;;;;1.85;87.92;95216.56;5011462;28;20194;-69
2020/12/08 01:57:29;;;;;;;21.50;14.57;;;;;;;1.97;87.55;95221.84;4998473;28;20656;-71
2020/12/08 01:59:55;;;;;;;21.13;14.13;;;;;;;1.86;87.85;95215.56;5013681;28;20203;-68
2020/12/08 02:02:21;;;;;;;22.13;14.40;;;;;;;1.89;87.40;95219.53;5011706;28;20612;-69
2020/12/08 02:04:46;;;;;;;22.27;14.60;;;;;;;1.83;88.16;95217.81;4965791;28;20183;-72
2020/12/08 02:07:12;;;;;;;23.57;14.43;;;;;;;1.75;87.74;95212.88;5010847;28;20179;-70
2020/12/08 02:09:38;;;;;;;22.37;15.37;;;;;;;1.65;88.43;95209.00;5011096;28;20249;-70
2020/12/08 02:12:04;;;;;;;20.97;13.97;;;;;;;1.70;88.63;95223.06;5012527;28;20176;-69
2020/12/08 02:14:30;;;;;;;23.23;14.87;;;;;;;1.89;88.37;95222.13;4959246;28;20224;-70
2020/12/08 02:16:56;;;;;;;21.43;14.43;;;;;;;1.83;88.06;95210.84;4988457;28;20592;-69
2020/12/08 02:19:22;;;;;;;23.20;15.93;;;;;;;1.82;88.80;95205.88;4973787;28;20236;-70
2020/12/08 02:21:47;;;;;;;22.30;14.47;;;;;;;1.88;87.89;95198.09;4971842;28;20188;-69
2020/12/08 02:24:16;;;;;;;24.13;15.63;;;;;;;1.85;87.71;95201.06;4973888;28;20191;-70
2020/12/08 02:26:45;;;;;;;22.73;15.10;;;;;;;1.73;88.72;95207.91;4971775;28;20232;-69
2020/12/08 02:29:11;;;;;;;24.77;14.97;;;;;;;1.66;88.49;95196.88;4971934;28;20219;-69
2020/12/08 02:31:37;;;;;;;25.00;15.90;;;;;;;1.71;88.75;95219.47;4980476;28;20654;-69
2020/12/08 02:34:03;;;;;;;23.00;15.13;;;;;;;1.74;89.26;95219.03;4972495;28;20207;-69
2020/12/08 02:36:29;;;;;;;23.50;15.50;;;;;;;1.58;88.16;95217.78;4971134;28;20272;-70
2020/12/08 02:38:54;;;;;;;24.27;15.60;;;;;;;1.73;88.78;95218.25;4971881;28;20279;-69
2020/12/08 02:41:24;;;;;;;24.23;14.83;;;;;;;1.67;88.23;95204.38;4972830;28;20203;-69
2020/12/08 02:43:51;;;;;;;22.33;14.90;;;;;;;1.63;88.58;95218.72;4987939;28;20220;-69
2020/12/08 02:46:18;;;;;;;25.23;15.90;;;;;;;1.61;88.62;95210.41;4987578;28;20236;-69
2020/12/08 02:48:44;;;;;;;23.63;15.43;;;;;;;1.74;88.09;95213.88;4972449;28;20979;-69
2020/12/08 02:51:18;;;;;;;22.80;15.40;;;;;;;1.81;87.57;95217.22;4971816;28;20251;-69
2020/12/08 02:53:44;;;;;;;21.53;14.43;;;;;;;1.86;87.64;95213.00;4965845;28;20180;-69
2020/12/08 02:56:10;;;;;;;24.13;15.17;;;;;;;1.77;87.28;95209.09;4972168;28;20215;-70
2020/12/08 02:58:36;;;;;;;23.97;15.53;;;;;;;1.44;88.47;95204.19;4969536;28;20180;-70
2020/12/08 03:01:01;;;;;;;24.30;15.03;;;;;;;1.57;88.62;95198.09;4987843;28;20220;-69
2020/12/08 03:03:28;;;;;;;23.90;15.60;;;;;;;1.26;90.05;95201.50;4969340;28;20208;-74
2020/12/08 03:05:54;;;;;;;21.93;15.10;;;;;;;1.43;89.38;95202.59;4982170;28;20927;-69
2020/12/08 03:08:19;;;;;;;26.97;16.70;;;;;;;1.47;88.96;95192.63;4970160;28;20192;-70
2020/12/08 03:10:44;;;;;;;26.67;16.60;;;;;;;1.46;89.15;95194.41;4986871;28;20200;-69
2020/12/08 03:13:11;;;;;;;24.03;15.03;;;;;;;1.57;89.01;95193.75;4968543;28;20227;-68
2020/12/08 03:15:36;;;;;;;22.53;15.23;;;;;;;1.40;89.64;95202.97;5011142;28;20183;-69
2020/12/08 03:18:02;;;;;;;24.50;15.50;;;;;;;1.52;88.99;95201.31;5011845;28;20714;-70
2020/12/08 03:20:27;;;;;;;25.23;16.80;;;;;;;1.62;89.04;95203.44;5011217;28;20195;-74
2020/12/08 03:22:53;;;;;;;24.23;15.80;;;;;;;1.60;88.54;95197.72;5011170;28;20191;-68
2020/12/08 03:25:18;;;;;;;24.00;15.93;;;;;;;1.45;88.67;95203.16;5011714;28;20249;-68
2020/12/08 03:27:43;;;;;;;26.83;15.87;;;;;;;1.48;89.24;95194.22;5009771;28;20259;-69
2020/12/08 03:30:09;;;;;;;25.43;16.17;;;;;;;1.23;90.31;95197.53;5011254;28;20233;-69
2020/12/08 03:32:34;;;;;;;24.73;16.47;;;;;;;1.30;90.08;95197.50;5010574;28;20556;-70
2020/12/08 03:35:00;;;;;;;25.53;16.60;;;;;;;1.32;89.49;95192.94;5011396;28;20214;-71
2020/12/08 03:37:25;;;;;;;25.10;16.30;;;;;;;1.18;89.99;95199.94;5011657;28;20194;-74
2020/12/08 03:39:51;;;;;;;23.30;15.43;;;;;;;1.04;91.46;95200.22;5011304;28;20191;-71
2020/12/08 03:42:16;;;;;;;24.70;16.07;;;;;;;1.15;91.12;95199.56;5011510;28;20187;-71
2020/12/08 03:44:42;;;;;;;26.33;16.23;;;;;;;1.19;89.68;95203.31;4997210;28;20194;-71
2020/12/08 03:47:07;;;;;;;27.03;17.47;;;;;;;1.06;90.93;95193.84;5011941;28;20640;-71
2020/12/08 03:49:33;;;;;;;22.83;15.73;;;;;;;1.24;90.12;95193.97;5001497;28;20198;-71
2020/12/08 03:51:58;;;;;;;24.80;16.53;;;;;;;1.24;89.87;95196.53;5011577;28;20198;-70
2020/12/08 03:54:25;;;;;;;25.93;16.67;;;;;;;1.29;89.84;95198.50;5011550;28;20220;-74
2020/12/08 03:56:51;;;;;;;24.47;16.13;;;;;;;1.13;90.48;95192.03;5011030;28;20225;-70
2020/12/08 03:59:17;;;;;;;24.67;16.50;;;;;;;1.01;91.33;95180.78;5010327;28;20237;-69
2020/12/08 04:01:46;;;;;;;23.63;15.43;;;;;;;1.07;90.90;95189.50;5010726;28;20183;-69
2020/12/08 04:04:11;;;;;;;25.97;17.07;;;;;;;1.34;89.79;95197.88;5011571;28;20180;-69
2020/12/08 04:06:37;;;;;;;24.17;15.77;;;;;;;1.22;89.45;95200.34;5017657;28;20219;-69
2020/12/08 04:09:02;;;;;;;24.67;15.93;;;;;;;1.16;89.60;95204.53;4998310;28;20186;-69
2020/12/08 04:11:28;;;;;;;27.00;15.47;;;;;;;1.17;89.33;95188.03;4993843;28;20534;-73
2020/12/08 04:13:53;;;;;;;24.70;16.07;;;;;;;0.87;90.35;95187.03;5011471;28;20302;-69
2020/12/08 04:16:19;;;;;;;25.90;16.53;;;;;;;1.02;89.50;95187.53;5010414;28;20199;-71
2020/12/08 04:18:44;;;;;;;24.13;15.83;;;;;;;0.92;90.49;95183.81;5010140;28;20203;-69
2020/12/08 04:21:09;;;;;;;28.03;16.43;;;;;;;0.89;89.93;95177.31;5010870;28;20199;-69
2020/12/08 04:23:35;;;;;;;25.23;16.47;;;;;;;0.57;91.52;95167.91;5010327;28;20179;-69
2020/12/08 04:26:00;;;;;;;27.70;17.40;;;;;;;0.69;91.65;95174.00;5011603;28;20241;-69
2020/12/08 04:28:26;;;;;;;27.07;16.93;;;;;;;0.67;91.95;95191.47;5011130;28;20191;-73
2020/12/08 04:30:51;;;;;;;26.97;16.67;;;;;;;0.79;91.50;95188.03;5010389;28;20194;-70
2020/12/08 04:33:17;;;;;;;26.03;16.90;;;;;;;0.89;91.02;95191.97;5009823;28;20179;-70
2020/12/08 04:35:43;;;;;;;28.40;18.17;;;;;;;0.80;91.41;95196.56;5010504;28;20278;-70
2020/12/08 04:38:09;;;;;;;29.97;18.33;;;;;;;0.72;91.62;95197.59;4999618;28;20316;-70
2020/12/08 04:40:35;;;;;;;26.97;17.27;;;;;;;0.81;91.75;95200.72;5008673;28;20243;-71
2020/12/08 04:43:04;;;;;;;27.90;17.27;;;;;;;0.76;92.11;95193.63;5014551;28;20270;-70
2020/12/08 04:45:30;;;;;;;29.57;17.77;;;;;;;0.89;91.17;95200.50;5013978;28;20192;-71
2020/12/08 04:48:05;;;;;;;26.90;17.47;;;;;;;0.83;91.59;95196.16;5014588;28;20195;-70
2020/12/08 04:50:31;;;;;;;28.07;17.20;;;;;;;0.78;91.89;95186.44;5013329;28;20179;-69
2020/12/08 04:52:57;;;;;;;28.60;18.00;;;;;;;0.86;91.66;95200.09;5014274;28;20187;-68
2020/12/08 04:55:22;;;;;;;27.40;17.53;;;;;;;0.58;92.95;95196.06;5014590;28;20194;-69
2020/12/08 04:57:49;;;;;;;27.03;16.90;;;;;;;0.80;91.70;95196.56;5014073;28;20183;-70
2020/12/08 05:00:14;;;;;;;29.10;18.50;;;;;;;0.92;91.51;95187.19;5014509;28;20230;-70
2020/12/08 05:02:53;;;;;;;29.10;17.40;;;;;;;0.97;91.93;95196.88;5003588;28;20270;-69
2020/12/08 05:05:20;;;;;;;25.67;16.70;;;;;;;1.07;91.76;95186.91;5014487;28;20206;-69
2020/12/08 05:07:47;;;;;;;28.47;17.83;;;;;;;1.00;92.01;95181.00;5005827;28;20741;-70
2020/12/08 05:10:27;;;;;;;29.43;18.43;;;;;;;0.90;91.86;95178.84;5013789;28;20532;-70
2020/12/08 05:12:54;;;;;;;29.57;17.63;;;;;;;0.95;91.29;95183.41;5004212;28;20227;-69
2020/12/08 05:15:20;;;;;;;26.73;17.23;;;;;;;1.04;91.26;95180.38;5014397;28;20167;-69
2020/12/08 05:17:45;;;;;;;29.37;17.37;;;;;;;1.00;91.63;95173.28;5020227;28;20191;-69
2020/12/08 05:20:14;;;;;;;29.10;17.67;;;;;;;0.61;92.69;95167.31;5013587;28;20286;-69
2020/12/08 05:22:53;;;;;;;30.90;18.97;;;;;;;0.49;94.14;95160.41;5011805;28;20568;-69
2020/12/08 05:25:19;;;;;;;28.87;17.83;;;;;;;0.13;96.06;95153.16;5021214;28;20256;-68
2020/12/08 05:27:48;;;;;;;29.30;18.07;;;;;;;0.25;95.76;95157.50;4980919;28;20804;-69
2020/12/08 05:30:14;;;;;;;30.43;18.37;;;;;;;0.66;93.84;95170.06;5011249;28;20309;-71
2020/12/08 05:32:41;;;;;;;26.53;17.20;;;;;;;0.82;92.56;95176.53;5012477;28;20210;-69
2020/12/08 05:35:10;;;;;;;27.77;16.67;;;;;;;0.88;92.70;95178.28;5013159;28;20187;-69
2020/12/08 05:37:40;;;;;;;26.17;17.10;;;;;;;0.83;93.01;95176.34;4994976;28;20190;-69
2020/12/08 05:40:09;;;;;;;26.37;15.97;;;;;;;0.60;93.28;95172.66;5012402;28;20213;-69
2020/12/08 05:42:37;;;;;;;26.70;17.43;;;;;;;0.74;93.33;95182.72;5011473;28;20195;-70
2020/12/08 05:45:05;;;;;;;25.90;17.07;;;;;;;1.08;91.35;95189.28;5013360;28;20183;-69
2020/12/08 05:47:33;;;;;;;26.23;17.20;;;;;;;1.15;90.69;95195.22;5011397;28;20273;-70
2020/12/08 05:50:02;;;;;;;25.70;16.43;;;;;;;1.03;90.93;95193.50;5013164;28;20191;-70
2020/12/08 05:52:30;;;;;;;24.30;16.60;;;;;;;1.20;91.05;95192.78;4996379;28;20179;-73
2020/12/08 05:55:16;;;;;;;25.87;16.83;;;;;;;1.19;90.06;95188.63;5013788;28;20187;-69
2020/12/08 05:57:42;;;;;;;26.70;17.07;;;;;;;1.29;89.73;95190.75;5005790;28;20183;-69
2020/12/08 06:00:24;;;;;;;26.10;16.57;;;;;;;1.43;88.86;95179.34;5010455;28;20203;-70
2020/12/08 06:02:50;;;;;;;26.50;16.90;;;;;;;1.37;88.59;95176.81;5011905;28;20187;-70
2020/12/08 06:05:30;;;;;;;27.17;16.97;;;;;;;1.16;89.33;95172.78;5013429;28;20219;-70
2020/12/08 06:07:56;;;;;;;26.17;16.73;;;;;;;1.01;90.04;95172.25;4999135;28;20182;-69
2020/12/08 06:10:22;;;;;;;27.17;16.87;;;;;;;1.11;89.67;95168.25;4988970;28;20583;-70
2020/12/08 06:13:02;;;;;;;25.77;16.87;;;;;;;1.04;90.34;95174.44;5009711;28;20277;-69
2020/12/08 06:15:39;;;;;;;26.47;16.80;;;;;;;1.25;89.38;95180.06;5001807;28;20193;-72
2020/12/08 06:18:06;;;;;;;27.00;17.23;;;;;;;1.15;89.26;95179.72;5011789;28;20198;-69
2020/12/08 06:20:36;;;;;;;28.70;17.03;;;;;;;0.78;91.37;95175.38;5011284;28;20211;-70
2020/12/08 06:23:02;;;;;;;26.17;17.43;;;;;;;0.95;90.72;95181.59;5002940;28;20182;-73
2020/12/08 06:25:28;;;;;;;28.23;18.17;;;;;;;1.05;90.61;95192.28;5015859;28;20190;-73
2020/12/08 06:28:00;;;;;;;27.17;17.63;;;;;;;0.93;90.74;95186.19;5019828;28;20188;-69
2020/12/08 06:30:26;;;;;;;28.73;18.03;;;;;;;1.09;89.83;95190.88;5012031;28;20191;-75
2020/12/08 06:32:51;;;;;;;27.00;17.80;;;;;;;0.94;90.87;95198.09;5011633;28;20253;-71
2020/12/08 06:35:18;;;;;;;24.17;16.20;;;;;;;0.88;91.39;95192.97;5012813;28;20277;-71
2020/12/08 06:37:49;;;;;;;27.47;16.90;;;;;;;0.77;91.42;95189.25;5000667;28;20409;-70
2020/12/08 06:40:20;;;;;;;28.60;16.97;;;;;;;0.84;90.91;95184.84;5017555;28;20678;-75
2020/12/08 06:42:47;;;;;;;25.77;16.47;;;;;;;0.91;91.13;95205.44;5008588;28;20256;-73
2020/12/08 06:45:17;;;;;;;26.67;17.43;;;;;;;0.90;91.02;95193.53;5012227;28;20187;-72
2020/12/08 06:47:44;;;;;;;28.90;16.43;;;;;;;0.97;90.91;95197.69;5023818;28;20513;-74
2020/12/08 06:50:42;;;;;;;25.30;16.90;;;;;;;0.87;90.55;95205.06;4979258;28;20198;-74
2020/12/08 06:53:07;;;;;;;24.60;15.83;;;;;;;0.69;90.97;95213.47;4999178;28;20194;-72
2020/12/08 06:55:45;;;;;;;26.33;17.00;;;;;;;1.04;89.71;95213.91;5011221;28;20180;-73
2020/12/08 06:58:10;;;;;;;28.63;17.40;;;;;;;0.96;89.07;95213.34;5012505;28;20185;-73
2020/12/08 07:00:35;;;;;;;27.33;17.17;;;;;;;1.01;89.29;95216.09;5012534;28;20196;-73
2020/12/08 07:03:01;;;;;;;28.10;17.97;;;;;;;0.93;89.56;95221.50;5011725;28;20187;-73
2020/12/08 07:05:29;;;;;;;30.67;17.90;;;;;;;0.93;89.80;95227.47;5011512;28;20203;-73
2020/12/08 07:08:03;;;;;;;31.37;19.03;;;;;;;0.93;89.99;95226.66;5011477;28;20191;-73
2020/12/08 07:10:28;;;;;;;29.53;18.63;;;;;;;0.96;89.66;95214.16;5011153;28;20179;-73
2020/12/08 07:12:54;;;;;;;29.63;18.53;;;;;;;0.74;90.79;95215.44;5011825;28;20234;-73
2020/12/08 07:15:27;;;;;;;30.13;18.93;;;;;;;0.83;90.41;95215.00;5010377;28;20543;-73
2020/12/08 07:17:56;;;;;;;29.07;18.80;;;;;;;0.83;90.46;95206.47;4997064;28;20187;-73
2020/12/08 07:20:22;;;;;;;30.20;18.83;;;;;;;0.54;91.26;95207.78;5011501;28;20203;-73
2020/12/08 07:22:48;;;;;;;30.47;18.50;;;;;;;0.68;90.83;95211.88;5010705;28;20218;-73
2020/12/08 07:25:17;;;;;;;31.10;18.93;;;;;;;0.54;91.72;95219.88;5009844;28;20284;-72
2020/12/08 07:27:49;;;;;;;30.37;18.93;;;;;;;0.59;91.58;95220.84;5011346;28;20187;-72
2020/12/08 07:30:18;;;;;;;30.27;18.73;;;;;;;0.78;91.11;95226.94;5012149;28;20187;-72
2020/12/08 07:32:43;;;;;;;30.60;18.63;;;;;;;0.72;91.15;95232.91;5009241;28;20210;-72
2020/12/08 07:35:27;;;;;;;30.27;19.20;;;;;;;0.84;89.98;95226.09;5011134;28;20179;-72
2020/12/08 07:37:57;;;;;;;30.00;18.70;;;;;;;0.95;90.10;95224.69;5011534;28;20179;-72
2020/12/08 07:40:29;;;;;;;32.53;18.40;;;;;;;1.21;89.53;95225.34;5011502;28;20668;-73
2020/12/08 07:42:55;;;;;;;30.73;18.43;;;;;;;0.81;90.37;95222.16;5011807;28;20550;-72
2020/12/08 07:45:21;;;;;;;30.13;19.77;;;;;;;1.02;89.42;95218.47;5011853;28;20191;-72
2020/12/08 07:47:52;;;;;;;28.10;18.73;;;;;;;0.94;90.17;95225.69;5011297;28;20206;-72
2020/12/08 07:50:26;;;;;;;30.17;19.00;;;;;;;1.26;90.06;95224.72;5011890;28;20242;-72
2020/12/08 07:52:55;;;;;;;31.70;19.97;;;;;;;1.22;89.58;95231.31;5011709;28;20261;-72
2020/12/08 07:55:20;;;;;;;28.07;17.80;;;;;;;1.21;89.27;95238.25;5011482;28;20270;-73
2020/12/08 07:57:45;;;;;;;28.70;18.77;;;;;;;1.47;88.87;95246.81;5011814;28;20270;-72
2020/12/08 08:00:11;;;;;;;28.57;18.47;;;;;;;1.46;88.14;95242.66;5011492;28;20213;-73
2020/12/08 08:02:36;;;;;;;29.40;18.67;;;;;;;1.35;87.96;95241.53;5011001;28;20645;-73
2020/12/08 08:05:02;;;;;;;29.40;19.33;;;;;;;1.22;88.30;95250.16;5011629;28;20198;-73
2020/12/08 08:07:27;;;;;;;27.47;17.77;;;;;;;1.21;88.21;95243.41;5011007;28;20270;-73
2020/12/08 08:09:52;;;;;;;26.23;18.03;;;;;;;1.30;87.64;95238.78;5011640;28;20207;-73
2020/12/08 08:12:18;;;;;;;28.97;17.47;;;;;;;1.28;87.93;95240.00;5011726;28;20195;-73
2020/12/08 08:14:43;;;;;;;29.63;17.93;;;;;;;1.26;87.51;95242.78;5011115;28;20502;-73
2020/12/08 08:17:09;;;;;;;27.63;17.87;;;;;;;1.12;87.52;95242.03;5014055;28;20648;-73
2020/12/08 08:19:34;;;;;;;29.67;17.80;;;;;;;1.35;87.28;95241.53;5014155;28;20202;-73
2020/12/08 08:22:02;;;;;;;29.57;17.87;;;;;;;1.13;87.98;95250.56;5016175;28;20192;-73
2020/12/08 08:24:27;;;;;;;27.87;18.27;;;;;;;1.33;87.76;95250.50;5014196;28;20625;-73
2020/12/08 08:26:53;;;;;;;30.57;18.40;;;;;;;1.31;87.89;95255.84;5015066;28;20183;-73
2020/12/08 08:29:18;;;;;;;30.03;17.80;;;;;;;1.53;86.38;95261.50;5014988;28;20225;-72
2020/12/08 08:31:44;;;;;;;26.00;16.97;;;;;;;1.66;85.61;95258.84;5014520;28;20214;-73
2020/12/08 08:34:09;;;;;;;28.07;17.53;;;;;;;1.80;84.52;95255.16;5015250;28;20211;-72
2020/12/08 08:36:35;;;;;;;28.67;18.37;;;;;;;1.94;84.63;95267.00;5013928;28;20263;-73
2020/12/08 08:39:00;;;;;;;29.17;19.60;;;;;;;2.05;83.85;95265.50;5014723;28;20210;-73
2020/12/08 08:41:26;;;;;;;32.03;19.77;;;;;;;2.09;83.37;95264.09;5014368;28;20191;-73
2020/12/08 08:43:51;;;;;;;27.33;18.00;;;;;;;2.17;82.66;95255.28;5015071;28;20290;-72
2020/12/08 08:46:17;;;;;;;25.70;17.17;;;;;;;2.16;82.57;95258.88;5014937;28;20225;-72
2020/12/08 08:48:42;;;;;;;27.00;17.27;;;;;;;2.33;82.35;95265.09;5014275;28;20229;-73
2020/12/08 08:51:07;;;;;;;27.57;17.30;;;;;;;2.36;81.93;95269.81;5014518;28;20655;-73
2020/12/08 08:53:33;;;;;;;24.40;16.43;;;;;;;2.35;82.37;95263.06;5013893;28;20263;-73
2020/12/08 08:55:58;;;;;;;23.03;16.23;;;;;;;2.56;80.58;95252.34;5014575;28;20198;-73
2020/12/08 08:58:24;;;;;;;24.47;16.37;;;;;;;2.66;79.88;95264.78;5014337;28;20190;-74
2020/12/08 09:00:49;;;;;;;22.90;15.93;;;;;;;2.71;79.44;95272.66;5014302;28;20599;-73
2020/12/08 09:03:15;;;;;;;25.87;16.80;;;;;;;2.65;80.29;95263.97;5014912;28;20183;-73
2020/12/08 09:05:40;;;;;;;24.77;17.00;;;;;;;2.69;80.00;95269.50;5023422;28;20214;-73
2020/12/08 09:08:06;;;;;;;24.20;16.87;;;;;;;2.72;79.90;95274.25;5014851;28;20179;-73
2020/12/08 09:10:31;;;;;;;22.80;15.80;;;;;;;2.79;79.45;95278.34;5013231;28;20179;-73
2020/12/08 09:12:57;;;;;;;23.67;15.73;;;;;;;2.72;80.40;95271.66;5014425;28;20246;-73
2020/12/08 09:15:22;;;;;;;24.03;15.63;;;;;;;2.96;79.60;95267.41;5014392;28;20176;-73
2020/12/08 09:17:48;;;;;;;23.47;15.53;;;;;;;2.67;79.37;95261.19;5013714;28;20187;-73
2020/12/08 09:20:14;;;;;;;26.17;16.10;;;;;;;2.40;79.60;95270.97;5014329;28;20207;-73
2020/12/08 09:22:41;;;;;;;21.70;15.53;;;;;;;2.66;79.28;95268.16;4988072;28;20206;-73
2020/12/08 09:25:06;;;;;;;21.77;14.40;;;;;;;2.61;79.17;95267.22;5004337;28;20199;-72
2020/12/08 09:27:32;;;;;;;22.20;14.93;;;;;;;2.46;79.14;95276.06;5019283;28;20640;-73
2020/12/08 09:29:57;;;;;;;22.07;14.93;;;;;;;2.41;79.98;95277.72;5014048;28;20238;-72
2020/12/08 09:32:23;;;;;;;25.27;15.53;;;;;;;2.56;79.23;95285.97;5013401;28;20190;-73
2020/12/08 09:34:48;;;;;;;21.43;14.80;;;;;;;2.54;79.62;95276.81;5013265;28;20269;-72
2020/12/08 09:37:14;;;;;;;24.13;15.83;;;;;;;2.73;79.15;95268.84;5013686;28;20629;-72
2020/12/08 09:39:39;;;;;;;24.87;15.17;;;;;;;2.56;79.46;95275.63;5012165;28;20210;-71
2020/12/08 09:42:05;;;;;;;22.77;15.83;;;;;;;2.59;79.71;95282.94;5013269;28;20205;-71
2020/12/08 09:44:30;;;;;;;26.00;16.27;;;;;;;2.29;80.24;95266.50;4997947;28;20187;-72
2020/12/08 09:46:56;;;;;;;23.23;15.80;;;;;;;2.40;80.39;95269.16;5012120;28;20190;-72
2020/12/08 09:49:22;;;;;;;24.50;15.97;;;;;;;2.59;79.55;95262.25;5013392;28;20207;-71
2020/12/08 09:51:47;;;;;;;23.73;15.70;;;;;;;2.59;80.23;95254.47;5012400;28;20215;-71
2020/12/08 09:54:13;;;;;;;21.90;15.23;;;;;;;2.60;80.12;95257.88;5011222;28;20184;-71
2020/12/08 09:56:38;;;;;;;25.47;15.20;;;;;;;2.10;81.81;95260.50;5012210;28;20195;-71
2020/12/08 09:59:04;;;;;;;21.00;14.27;;;;;;;2.27;80.56;95266.72;5012905;28;20551;-71
2020/12/08 10:01:33;;;;;;;21.40;14.90;;;;;;;2.71;79.83;95273.47;5012360;28;20191;-72
2020/12/08 10:04:00;;;;;;;22.33;14.43;;;;;;;3.96;93.44;95265.91;5012889;28;20191;-74
2020/12/08 10:06:26;;;;;;;21.70;13.80;;;;;;;4.14;76.66;95253.66;5014477;28;20183;-75
2020/12/08 10:08:55;;;;;;;21.00;14.47;;;;;;;4.05;74.29;95257.59;5012171;28;20187;-73
2020/12/08 10:11:24;;;;;;;20.93;14.97;;;;;;;3.71;75.39;95250.53;5012597;28;20187;-73
2020/12/08 10:13:49;;;;;;;20.60;14.73;;;;;;;3.56;75.59;95263.91;5012105;28;20239;-75
2020/12/08 10:16:19;;;;;;;22.97;15.53;;;;;;;3.62;74.61;95250.03;5012828;28;20198;-73
2020/12/08 10:18:45;;;;;;;20.67;14.53;;;;;;;3.29;76.14;95254.88;5011928;28;20674;-73
2020/12/08 10:21:11;;;;;;;21.17;14.50;;;;;;;3.40;76.66;95248.19;5012648;28;20195;-73
2020/12/08 10:23:36;;;;;;;21.03;14.37;;;;;;;3.56;75.92;95258.72;5011683;28;20187;-73
2020/12/08 10:26:02;;;;;;;20.57;14.77;;;;;;;3.25;76.59;95256.31;5012283;28;20187;-73
2020/12/08 10:28:27;;;;;;;22.00;14.37;;;;;;;3.41;75.91;95260.88;5011811;28;20655;-75
2020/12/08 10:30:53;;;;;;;19.57;13.73;;;;;;;3.30;75.89;95259.84;5012001;28;20286;-73
2020/12/08 10:33:18;;;;;;;20.57;14.23;;;;;;;3.39;76.02;95256.97;5012892;28;20186;-73
2020/12/08 10:35:44;;;;;;;20.07;14.17;;;;;;;3.27;75.69;95254.31;5011465;28;20187;-73
2020/12/08 10:38:11;;;;;;;19.23;13.43;;;;;;;3.31;74.76;95245.88;5011072;28;20277;-73
2020/12/08 10:40:37;;;;;;;21.87;13.87;;;;;;;3.48;75.09;95245.28;5010553;28;20199;-73
2020/12/08 10:43:02;;;;;;;18.40;13.33;;;;;;;3.22;75.02;95242.03;5011227;28;20656;-73
2020/12/08 10:45:27;;;;;;;18.53;13.27;;;;;;;3.14;75.57;95247.50;5011932;28;20216;-75
2020/12/08 10:47:53;;;;;;;18.50;13.10;;;;;;;3.22;74.87;95249.81;5013332;28;20222;-73
2020/12/08 10:50:18;;;;;;;18.20;12.50;;;;;;;2.87;75.47;95257.38;5012169;28;20572;-73
2020/12/08 10:52:44;;;;;;;18.60;13.43;;;;;;;3.04;74.65;95260.16;5010079;28;20258;-73
2020/12/08 10:55:09;;;;;;;21.43;14.00;;;;;;;3.09;75.16;95257.72;5012102;28;20187;-74
2020/12/08 10:57:35;;;;;;;19.70;13.10;;;;;;;3.36;74.78;95258.19;5011102;28;20194;-73
2020/12/08 11:00:00;;;;;;;19.40;13.50;;;;;;;3.52;73.57;95256.75;5012264;28;20204;-73
2020/12/08 11:02:27;;;;;;;19.30;13.30;;;;;;;3.46;72.94;95255.84;5010769;28;20176;-76
2020/12/08 11:04:52;;;;;;;20.40;13.60;;;;;;;3.39;72.63;95251.78;5011781;28;20656;-72
2020/12/08 11:07:18;;;;;;;17.37;12.43;;;;;;;3.52;72.90;95254.19;5011731;28;20193;-73
2020/12/08 11:09:43;;;;;;;18.07;13.03;;;;;;;3.62;72.63;95257.81;5009964;28;20214;-72
2020/12/08 11:12:10;;;;;;;19.07;12.90;;;;;;;3.52;73.09;95261.94;5011542;28;20194;-73
2020/12/08 11:14:36;;;;;;;21.23;12.83;;;;;;;3.61;72.87;95250.28;5014933;28;20215;-73
2020/12/08 11:17:01;;;;;;;18.67;13.00;;;;;;;3.63;73.25;95245.66;5011972;28;20194;-73
2020/12/08 11:19:26;;;;;;;19.73;13.57;;;;;;;3.51;73.57;95248.19;5000552;28;20211;-76
2020/12/08 11:21:52;;;;;;;19.03;13.37;;;;;;;3.62;73.71;95252.63;5011148;28;20187;-73